Time;durP1;ratioP1;P1;durP2;ratioP2;P2;SDS_P1;SDS_P2;PMS_P1;PMS_P2;Temp;Humidity;BMP_temperature;BMP_pressure;BME280_temperature;BME280_humidity;BME280_pressure;Samples;Min_cycle;Max_cycle;Signal;HPM_P1;HPM_P2
2022/12/11 00:00:27;;;;;;;9.38;6.22;;;18.40;43.00;;;;;;5051254;28;20055;-36
2022/12/11 00:02:55;;;;;;;10.00;6.10;;;18.40;43.00;;;;;;5051898;28;20409;-36
2022/12/11 00:05:22;;;;;;;8.82;6.07;;;18.40;43.10;;;;;;5051873;28;20529;-36
2022/12/11 00:07:49;;;;;;;8.70;6.00;;;18.30;43.10;;;;;;5052134;28;20045;-36
2022/12/11 00:10:16;;;;;;;9.60;6.50;;;18.30;43.10;;;;;;5050885;28;20060;-36
2022/12/11 00:12:43;;;;;;;9.77;6.32;;;18.30;43.10;;;;;;5051974;28;20055;-36
2022/12/11 00:15:10;;;;;;;7.30;5.38;;;18.20;43.10;;;;;;5051868;28;20048;-36
2022/12/11 00:17:37;;;;;;;8.80;5.90;;;18.20;43.20;;;;;;5051848;28;20056;-36
2022/12/11 00:20:06;;;;;;;8.45;5.80;;;18.20;43.20;;;;;;5051386;28;20048;-36
2022/12/11 00:22:33;;;;;;;7.80;5.35;;;18.20;43.20;;;;;;5051877;28;20055;-36
2022/12/11 00:25:00;;;;;;;8.25;5.78;;;18.20;43.20;;;;;;5051664;28;20119;-36
2022/12/11 00:27:27;;;;;;;9.00;6.05;;;18.10;43.20;;;;;;5052011;28;20547;-36
2022/12/11 00:29:53;;;;;;;7.95;5.55;;;18.10;43.90;;;;;;5051521;28;20555;-36
2022/12/11 00:32:20;;;;;;;9.00;5.85;;;18.00;43.30;;;;;;5051324;28;20048;-36
2022/12/11 00:34:47;;;;;;;8.05;5.55;;;18.00;43.30;;;;;;5051736;28;20044;-36
2022/12/11 00:37:15;;;;;;;8.80;5.75;;;18.00;43.30;;;;;;5050803;28;20053;-36
2022/12/11 00:39:42;;;;;;;8.27;5.88;;;18.00;43.40;;;;;;5050392;28;20053;-36
2022/12/11 00:42:09;;;;;;;7.82;5.85;;;18.00;43.40;;;;;;5051404;28;20522;-36
2022/12/11 00:44:35;;;;;;;9.23;5.90;;;17.90;43.40;;;;;;5051321;28;20041;-36
2022/12/11 00:47:02;;;;;;;8.23;5.57;;;17.90;43.40;;;;;;5051358;28;20045;-36
2022/12/11 00:49:29;;;;;;;9.27;5.57;;;17.80;43.40;;;;;;5051597;28;20071;-36
2022/12/11 00:51:55;;;;;;;9.00;5.68;;;17.80;43.40;;;;;;5051651;28;20059;-37
2022/12/11 00:54:23;;;;;;;6.70;5.15;;;17.80;43.50;;;;;;5051400;28;20081;-36
2022/12/11 00:56:50;;;;;;;7.70;5.45;;;17.80;43.50;;;;;;5051255;28;20053;-36
2022/12/11 00:59:17;;;;;;;7.50;5.60;;;17.70;43.50;;;;;;5055568;28;20049;-36
2022/12/11 01:01:44;;;;;;;7.97;5.45;;;17.70;43.50;;;;;;5055907;28;20053;-36
2022/12/11 01:04:10;;;;;;;7.13;5.15;;;17.70;43.60;;;;;;5055513;28;20128;-36
2022/12/11 01:06:37;;;;;;;8.70;5.57;;;17.60;43.60;;;;;;5055378;28;20074;-36
2022/12/11 01:11:49;;;;;;;7.47;5.55;;;17.50;44.30;;;;;;5055729;28;20049;-36
2022/12/11 01:14:16;;;;;;;8.15;5.68;;;17.50;43.80;;;;;;5055322;28;20053;-36
2022/12/11 01:16:43;;;;;;;7.57;5.40;;;17.50;43.90;;;;;;5055035;28;20045;-36
2022/12/11 01:19:09;;;;;;;7.28;5.30;;;17.50;43.90;;;;;;5055499;28;20132;-36
2022/12/11 01:21:36;;;;;;;6.68;4.70;;;17.40;43.90;;;;;;5055511;28;20049;-36
2022/12/11 01:24:03;;;;;;;7.55;5.03;;;17.40;43.90;;;;;;5055275;28;20053;-36
2022/12/11 01:26:30;;;;;;;7.10;5.40;;;17.40;44.00;;;;;;5055165;28;20051;-36
2022/12/11 01:28:58;;;;;;;8.48;5.55;;;17.30;43.90;;;;;;5055156;28;20131;-36
2022/12/11 01:31:24;;;;;;;6.80;5.43;;;17.30;44.00;;;;;;5055192;28;20045;-36
2022/12/11 01:33:53;;;;;;;7.45;5.30;;;17.30;44.00;;;;;;5055109;28;20051;-36
2022/12/11 01:36:21;;;;;;;8.57;6.20;;;17.30;44.10;;;;;;5054670;28;20124;-36
2022/12/11 01:38:48;;;;;;;7.82;5.95;;;17.30;44.10;;;;;;5054820;28;20511;-36
2022/12/11 01:41:15;;;;;;;9.02;6.07;;;17.20;44.10;;;;;;5055101;28;20048;-36
2022/12/11 01:44:03;;;;;;;8.75;6.57;;;17.20;44.20;;;;;;5054673;28;20067;-36
2022/12/11 01:46:30;;;;;;;7.68;5.70;;;17.10;44.20;;;;;;5054575;28;20051;-36
2022/12/11 01:48:57;;;;;;;8.57;6.32;;;17.10;44.30;;;;;;5054870;28;20045;-36
2022/12/11 01:51:24;;;;;;;9.23;6.38;;;17.10;44.30;;;;;;5055017;28;20049;-36
2022/12/11 01:53:51;;;;;;;7.85;5.82;;;17.10;44.40;;;;;;5054468;28;20159;-36
2022/12/11 01:56:18;;;;;;;7.70;5.72;;;17.10;44.40;;;;;;5054992;28;20049;-36
2022/12/11 01:58:47;;;;;;;9.07;6.05;;;17.00;44.40;;;;;;5054569;28;20049;-36
2022/12/11 02:01:18;;;;;;;8.13;5.57;;;17.00;44.40;;;;;;5054648;28;20049;-36
2022/12/11 02:03:45;;;;;;;7.95;5.35;;;17.00;44.50;;;;;;5054480;28;20132;-36
2022/12/11 02:06:30;;;;;;;8.20;5.45;;;17.00;44.60;;;;;;5054586;28;20057;-36
2022/12/11 02:08:57;;;;;;;8.40;5.68;;;17.00;44.70;;;;;;5053227;28;20519;-36
2022/12/11 02:11:24;;;;;;;7.50;5.22;;;16.90;44.70;;;;;;5054505;28;20059;-36
2022/12/11 02:13:54;;;;;;;7.40;5.45;;;16.90;44.60;;;;;;5054071;28;20498;-36
2022/12/11 02:16:25;;;;;;;8.50;6.05;;;17.00;44.70;;;;;;5054125;28;20044;-36
2022/12/11 02:18:54;;;;;;;8.93;6.45;;;16.90;44.60;;;;;;5054344;28;20053;-36
2022/12/11 02:21:23;;;;;;;10.60;6.22;;;16.90;44.60;;;;;;5054284;28;20055;-36
2022/12/11 02:24:14;;;;;;;10.38;6.60;;;16.90;44.70;;;;;;5054120;28;20129;-36
2022/12/11 02:27:08;;;;;;;11.27;7.15;;;17.00;44.70;;;;;;5054207;28;20056;-36
2022/12/11 02:29:37;;;;;;;11.48;7.43;;;17.00;44.70;;;;;;5054096;28;20053;-36
2022/12/11 02:32:06;;;;;;;11.95;7.30;;;17.00;44.70;;;;;;5054145;28;20071;-36
2022/12/11 02:34:36;;;;;;;11.45;7.70;;;17.00;44.70;;;;;;5053982;28;20052;-36
2022/12/11 02:37:07;;;;;;;11.13;7.22;;;17.10;44.60;;;;;;5053843;28;20040;-36
2022/12/11 02:39:33;;;;;;;12.32;7.25;;;17.10;44.60;;;;;;5054053;28;20147;-36
2022/12/11 02:42:00;;;;;;;9.68;6.80;;;17.10;44.70;;;;;;5053427;28;20041;-36
2022/12/11 02:44:28;;;;;;;11.20;7.28;;;17.10;44.70;;;;;;5053472;28;20515;-36
2022/12/11 02:46:56;;;;;;;11.32;6.78;;;17.10;44.60;;;;;;5053740;28;20041;-36
2022/12/11 02:49:23;;;;;;;10.95;6.88;;;17.20;44.60;;;;;;5053864;28;20051;-36
2022/12/11 02:51:50;;;;;;;10.68;6.68;;;17.20;44.50;;;;;;5053573;28;20477;-36
2022/12/11 02:54:19;;;;;;;9.35;6.35;;;17.20;44.50;;;;;;5053657;28;20162;-36
2022/12/11 02:56:47;;;;;;;10.48;6.78;;;17.20;44.50;;;;;;5053658;28;20045;-36
2022/12/11 02:59:16;;;;;;;9.73;6.03;;;17.30;44.60;;;;;;5053526;28;20041;-36
2022/12/11 03:01:42;;;;;;;10.43;5.85;;;17.30;44.50;;;;;;5053672;28;20045;-36
2022/12/11 03:04:10;;;;;;;10.70;6.20;;;17.30;44.50;;;;;;5053346;28;20421;-36
2022/12/11 03:06:40;;;;;;;10.48;6.10;;;17.30;44.40;;;;;;5053276;28;20128;-36
2022/12/11 03:09:06;;;;;;;9.15;5.57;;;17.30;44.40;;;;;;5053793;28;20071;-36
2022/12/11 03:11:33;;;;;;;8.38;5.47;;;17.30;44.40;;;;;;5053278;28;20412;-36
2022/12/11 03:14:01;;;;;;;8.65;5.38;;;17.40;44.50;;;;;;5053091;28;20055;-36
2022/12/11 03:16:30;;;;;;;7.22;5.30;;;17.40;44.40;;;;;;5053214;28;20132;-36
2022/12/11 03:19:01;;;;;;;8.75;5.38;;;17.40;44.40;;;;;;5053175;28;20401;-36
2022/12/11 03:21:32;;;;;;;8.70;5.60;;;17.40;44.30;;;;;;5052585;28;20071;-36
2022/12/11 03:24:02;;;;;;;8.55;5.43;;;17.50;44.40;;;;;;5052923;28;20071;-36
2022/12/11 03:26:28;;;;;;;12.05;5.82;;;17.40;44.40;;;;;;5052868;28;20049;-36
2022/12/11 03:28:57;;;;;;;9.88;5.50;;;17.50;44.40;;;;;;5053002;28;20462;-36
2022/12/11 03:31:26;;;;;;;8.73;5.82;;;17.50;44.40;;;;;;5052867;28;20045;-36
2022/12/11 03:33:54;;;;;;;8.20;5.07;;;17.50;44.30;;;;;;5052914;28;20049;-36
2022/12/11 03:36:22;;;;;;;9.63;5.55;;;17.60;44.90;;;;;;5052558;28;20052;-36
2022/12/11 03:38:51;;;;;;;7.07;5.10;;;17.60;44.30;;;;;;5052814;28;20409;-36
2022/12/11 03:41:18;;;;;;;10.77;6.13;;;17.60;44.30;;;;;;5052549;28;20044;-36
2022/12/11 03:43:45;;;;;;;9.93;5.43;;;17.60;44.20;;;;;;5052526;28;20053;-36
2022/12/11 03:46:12;;;;;;;7.60;5.05;;;17.60;44.20;;;;;;5052559;28;20052;-36
2022/12/11 03:48:39;;;;;;;14.07;6.03;;;17.60;44.20;;;;;;5052596;28;20049;-36
2022/12/11 03:51:06;;;;;;;11.55;6.75;;;17.60;44.20;;;;;;5052748;28;20052;-36
2022/12/11 03:53:33;;;;;;;15.20;7.50;;;17.60;44.10;;;;;;5051357;28;20512;-36
2022/12/11 03:56:02;;;;;;;16.95;8.55;;;17.70;44.10;;;;;;5051399;28;20374;-36
2022/12/11 03:58:28;;;;;;;13.85;7.82;;;17.70;44.10;;;;;;5051922;28;20055;-36
2022/12/11 04:00:55;;;;;;;14.85;8.45;;;17.70;44.10;;;;;;5052053;28;20053;-36
2022/12/11 04:03:22;;;;;;;14.95;8.05;;;17.70;44.00;;;;;;5051958;28;20490;-36
2022/12/11 04:05:49;;;;;;;13.85;8.05;;;17.70;44.00;;;;;;5052398;28;20053;-36
2022/12/11 04:08:16;;;;;;;14.02;7.43;;;17.70;44.00;;;;;;5052012;28;20041;-36
2022/12/11 04:10:43;;;;;;;14.20;7.72;;;17.80;44.00;;;;;;5051793;28;20051;-36
2022/12/11 04:13:11;;;;;;;12.57;7.80;;;17.80;43.90;;;;;;5051731;28;20055;-36
2022/12/11 04:15:37;;;;;;;14.20;8.30;;;17.80;43.90;;;;;;5052031;28;20059;-36
2022/12/11 04:26:15;;;;;;;13.38;7.80;;;17.80;43.80;;;;;;5052110;28;20203;-36
2022/12/11 04:28:43;;;;;;;11.13;7.07;;;17.80;43.80;;;;;;5051763;28;20110;-36
2022/12/11 04:31:11;;;;;;;11.02;6.82;;;17.80;43.80;;;;;;5051791;28;20045;-36
2022/12/11 04:33:38;;;;;;;11.55;7.03;;;17.80;43.70;;;;;;5050625;28;20055;-36
2022/12/11 04:36:05;;;;;;;11.25;6.38;;;17.80;43.70;;;;;;5050863;28;20061;-36
2022/12/11 04:38:31;;;;;;;11.60;6.68;;;17.90;43.70;;;;;;5051375;28;20053;-36
2022/12/11 04:40:59;;;;;;;9.80;6.50;;;17.80;43.70;;;;;;5051643;28;20055;-36
2022/12/11 04:43:26;;;;;;;10.00;6.30;;;17.90;43.80;;;;;;5051836;28;20053;-36
2022/12/11 04:46:02;;;;;;;11.52;6.63;;;17.80;43.70;;;;;;5051597;28;20049;-36
2022/12/11 04:48:28;;;;;;;10.10;6.32;;;17.90;43.70;;;;;;5050478;28;20056;-36
2022/12/11 04:50:55;;;;;;;10.50;6.65;;;17.90;43.70;;;;;;5051546;28;20049;-36
2022/12/11 04:53:22;;;;;;;9.65;6.05;;;17.90;43.60;;;;;;5051200;28;20049;-36
2022/12/11 04:55:48;;;;;;;11.07;6.00;;;17.90;43.70;;;;;;5051485;28;20045;-36
2022/12/11 04:58:15;;;;;;;9.93;6.07;;;17.90;43.70;;;;;;5051565;28;20071;-36
2022/12/11 05:00:42;;;;;;;8.73;6.20;;;17.90;43.70;;;;;;5051443;28;20052;-36
2022/12/11 05:03:10;;;;;;;7.43;5.18;;;17.90;43.70;;;;;;5051239;28;20053;-36
2022/12/11 05:05:37;;;;;;;12.45;6.32;;;17.90;43.60;;;;;;5051391;28;20417;-36
2022/12/11 05:08:04;;;;;;;9.20;5.47;;;17.90;43.60;;;;;;5051507;28;20053;-36
2022/12/11 05:10:30;;;;;;;9.32;5.65;;;17.90;43.60;;;;;;5051366;28;20199;-36
2022/12/11 05:12:57;;;;;;;10.50;5.82;;;17.90;43.70;;;;;;5051262;28;20061;-36
2022/12/11 05:15:24;;;;;;;9.57;6.15;;;18.00;43.70;;;;;;5051227;28;20056;-36
2022/12/11 05:17:50;;;;;;;9.75;5.60;;;18.00;43.70;;;;;;5051138;28;20061;-36
2022/12/11 05:20:18;;;;;;;8.30;5.60;;;18.00;43.60;;;;;;5051239;28;20057;-36
2022/12/11 05:22:45;;;;;;;8.10;5.22;;;18.00;43.60;;;;;;5051380;28;20053;-36
2022/12/11 05:25:12;;;;;;;9.00;5.32;;;18.00;43.50;;;;;;5051158;28;20061;-36
2022/12/11 05:27:39;;;;;;;8.38;5.28;;;18.00;43.60;;;;;;5051285;28;20055;-36
2022/12/11 05:30:07;;;;;;;7.95;5.40;;;19.70;44.60;;;;;;5051364;28;20611;-36
2022/12/11 05:32:33;;;;;;;8.95;4.95;;;18.00;43.70;;;;;;5050900;28;20049;-36
2022/12/11 05:35:00;;;;;;;8.85;5.38;;;18.10;43.60;;;;;;5050555;28;20508;-36
2022/12/11 05:37:29;;;;;;;8.75;5.28;;;18.10;43.60;;;;;;5036975;28;20163;-36
2022/12/11 05:39:55;;;;;;;8.40;4.93;;;18.10;43.50;;;;;;5031153;28;20045;-36
2022/12/11 05:42:22;;;;;;;7.65;4.97;;;18.10;43.50;;;;;;5030997;28;20045;-36
2022/12/11 05:44:49;;;;;;;8.52;4.80;;;18.10;43.60;;;;;;5033850;28;20049;-36
2022/12/11 05:47:19;;;;;;;8.68;5.18;;;18.10;43.60;;;;;;5034869;28;20052;-36
2022/12/11 05:49:46;;;;;;;8.60;5.28;;;18.10;43.50;;;;;;5051299;28;20045;-36
2022/12/11 05:52:12;;;;;;;8.45;5.43;;;18.10;43.40;;;;;;5054625;28;20084;-36
2022/12/11 05:54:40;;;;;;;8.57;4.90;;;18.10;43.40;;;;;;5054612;28;20139;-36
2022/12/11 05:57:07;;;;;;;7.75;5.03;;;18.20;43.40;;;;;;5054424;28;20506;-37
2022/12/11 05:59:34;;;;;;;8.00;4.95;;;18.20;43.50;;;;;;5054444;28;20055;-36
2022/12/11 06:02:01;;;;;;;8.23;5.20;;;18.20;43.50;;;;;;5054457;28;20056;-36
2022/12/11 06:04:27;;;;;;;8.05;5.07;;;18.20;43.40;;;;;;5054198;28;20055;-36
2022/12/11 06:06:54;;;;;;;7.72;4.75;;;18.20;43.40;;;;;;5054319;28;20049;-36
2022/12/11 06:09:21;;;;;;;7.50;4.88;;;18.20;43.30;;;;;;5054447;28;20055;-36
2022/12/11 06:11:49;;;;;;;7.95;4.72;;;18.20;43.30;;;;;;5054173;28;20532;-36
2022/12/11 06:14:15;;;;;;;7.32;4.97;;;18.20;43.40;;;;;;5052728;28;20061;-36
2022/12/11 06:16:42;;;;;;;6.78;4.68;;;18.20;43.40;;;;;;5054496;28;20068;-36
2022/12/11 06:19:13;;;;;;;8.90;5.40;;;18.20;43.30;;;;;;5053965;28;20049;-36
2022/12/11 06:21:39;;;;;;;8.15;4.85;;;18.20;43.20;;;;;;5054284;28;20049;-36
2022/12/11 06:24:07;;;;;;;6.72;4.55;;;18.30;43.20;;;;;;5053755;28;20063;-36
2022/12/11 06:26:34;;;;;;;6.93;4.72;;;18.20;43.20;;;;;;5054004;28;20152;-36
2022/12/11 06:29:02;;;;;;;7.20;5.00;;;18.20;43.20;;;;;;5053815;28;20142;-36
2022/12/11 06:31:28;;;;;;;7.10;4.43;;;18.20;43.20;;;;;;5054289;28;20053;-36
2022/12/11 06:33:55;;;;;;;9.15;5.13;;;18.30;43.30;;;;;;5053657;28;20041;-36
2022/12/11 06:36:22;;;;;;;7.97;4.90;;;18.20;43.20;;;;;;5053102;28;20055;-36
2022/12/11 06:38:49;;;;;;;7.00;4.78;;;18.20;43.10;;;;;;5053825;28;20045;-36
2022/12/11 06:41:16;;;;;;;6.97;4.68;;;18.20;43.10;;;;;;5053631;28;20075;-36
2022/12/11 06:43:43;;;;;;;7.10;4.40;;;18.20;43.20;;;;;;5053711;28;20078;-36
2022/12/11 06:46:12;;;;;;;7.53;4.88;;;18.30;43.30;;;;;;5053217;28;20051;-36
2022/12/11 06:48:41;;;;;;;8.10;5.28;;;18.30;43.20;;;;;;5053659;28;20485;-36
2022/12/11 06:51:08;;;;;;;8.15;4.95;;;18.30;43.20;;;;;;5053505;28;20670;-36
2022/12/11 06:53:35;;;;;;;6.57;4.75;;;18.30;43.20;;;;;;5053070;28;20045;-36
2022/12/11 06:56:03;;;;;;;6.57;4.32;;;18.30;43.10;;;;;;5052780;28;20051;-36
2022/12/11 06:58:29;;;;;;;6.07;4.35;;;18.30;43.10;;;;;;5053383;28;20412;-36
2022/12/11 07:00:56;;;;;;;8.48;5.00;;;18.30;43.20;;;;;;5053386;28;20049;-36
2022/12/11 07:03:24;;;;;;;7.25;5.03;;;18.30;43.20;;;;;;5052772;28;20048;-36
2022/12/11 07:05:51;;;;;;;7.88;5.03;;;18.30;43.10;;;;;;5053125;28;20127;-36
2022/12/11 07:08:17;;;;;;;6.90;4.65;;;18.30;43.10;;;;;;5053146;28;20437;-36
2022/12/11 07:10:44;;;;;;;7.40;4.72;;;18.30;43.10;;;;;;5053409;28;20147;-36
2022/12/11 07:13:11;;;;;;;6.63;4.50;;;18.30;43.00;;;;;;5053246;28;20075;-36
2022/12/11 07:15:37;;;;;;;6.32;4.15;;;18.30;43.10;;;;;;5052990;28;20083;-36
2022/12/11 07:18:04;;;;;;;7.20;4.65;;;18.30;43.10;;;;;;5052963;28;20075;-36
2022/12/11 07:20:32;;;;;;;6.82;4.43;;;18.30;43.10;;;;;;5053058;28;20183;-36
2022/12/11 07:22:59;;;;;;;6.22;4.28;;;18.30;43.00;;;;;;5051743;28;20060;-36
2022/12/11 07:25:26;;;;;;;7.43;4.40;;;18.30;43.00;;;;;;5052295;28;20045;-36
2022/12/11 07:27:52;;;;;;;7.00;4.55;;;18.30;42.90;;;;;;5053138;28;20119;-36
2022/12/11 07:30:19;;;;;;;6.53;4.10;;;18.30;43.00;;;;;;5052779;28;20051;-36
2022/12/11 07:32:46;;;;;;;6.28;3.90;;;18.40;43.10;;;;;;5051552;28;20057;-37
2022/12/11 07:35:12;;;;;;;6.05;4.13;;;18.30;43.10;;;;;;5052537;28;20401;-36
2022/12/11 07:37:41;;;;;;;5.63;3.70;;;18.40;43.20;;;;;;5051799;28;20041;-36
2022/12/11 07:40:09;;;;;;;8.32;3.80;;;18.40;43.20;;;;;;5051986;28;20127;-36
2022/12/11 07:42:36;;;;;;;7.65;3.80;;;18.40;43.30;;;;;;5052164;28;20053;-37
2022/12/11 07:45:03;;;;;;;6.97;4.30;;;18.50;43.40;;;;;;5052281;28;20128;-36
2022/12/11 07:47:30;;;;;;;6.82;4.47;;;18.40;43.40;;;;;;5052664;28;20151;-36
2022/12/11 07:49:57;;;;;;;7.05;4.30;;;18.40;43.40;;;;;;5052455;28;20084;-36
2022/12/11 07:52:23;;;;;;;8.13;4.50;;;18.50;43.50;;;;;;5052437;28;20402;-36
2022/12/11 07:54:51;;;;;;;6.60;3.85;;;18.50;43.50;;;;;;5052728;28;20051;-36
2022/12/11 07:57:18;;;;;;;5.68;3.92;;;18.50;43.50;;;;;;5052533;28;20053;-36
2022/12/11 07:59:45;;;;;;;6.65;4.18;;;18.50;43.50;;;;;;5051718;28;20063;-37
2022/12/11 08:02:11;;;;;;;6.30;3.85;;;18.60;43.60;;;;;;5051256;28;20056;-36
2022/12/11 08:04:38;;;;;;;6.93;3.72;;;18.60;43.60;;;;;;5051615;28;20048;-36
2022/12/11 08:07:05;;;;;;;6.97;3.80;;;18.60;43.60;;;;;;5051301;28;20128;-36
2022/12/11 08:09:32;;;;;;;7.30;4.38;;;18.60;43.60;;;;;;5051520;28;20470;-36
2022/12/11 08:12:00;;;;;;;7.00;4.10;;;18.70;43.60;;;;;;5051245;28;20123;-37
2022/12/11 08:14:27;;;;;;;6.22;3.85;;;18.70;43.60;;;;;;5050096;28;20041;-36
2022/12/11 08:16:54;;;;;;;6.75;4.32;;;18.70;43.60;;;;;;5049682;28;20478;-36
2022/12/11 08:19:21;;;;;;;6.07;4.15;;;18.80;43.60;;;;;;5051392;28;20094;-36
2022/12/11 08:21:47;;;;;;;6.43;4.00;;;18.80;43.60;;;;;;5052124;28;20049;-36
2022/12/11 08:24:15;;;;;;;8.85;4.30;;;18.90;43.70;;;;;;5051436;28;20485;-36
2022/12/11 08:26:41;;;;;;;7.03;4.03;;;18.90;43.80;;;;;;5052068;28;20048;-37
2022/12/11 08:29:09;;;;;;;7.95;4.32;;;18.90;43.70;;;;;;5051942;28;20055;-37
2022/12/11 08:31:36;;;;;;;6.60;4.25;;;18.90;43.60;;;;;;5051939;28;20136;-37
2022/12/11 08:34:03;;;;;;;6.93;4.63;;;19.00;43.60;;;;;;5051889;28;20052;-36
2022/12/11 08:36:30;;;;;;;7.47;4.68;;;19.00;43.50;;;;;;5050852;28;20071;-36
2022/12/11 08:38:56;;;;;;;6.32;4.22;;;19.00;43.40;;;;;;5051416;28;20066;-36
2022/12/11 08:41:24;;;;;;;6.65;4.00;;;19.00;43.40;;;;;;5051561;28;20051;-37
2022/12/11 08:43:53;;;;;;;6.70;4.30;;;19.00;43.30;;;;;;5050915;28;20044;-37
2022/12/11 08:46:22;;;;;;;6.45;4.40;;;19.10;43.40;;;;;;5051497;28;20087;-36
2022/12/11 08:48:49;;;;;;;7.05;4.03;;;19.10;43.30;;;;;;5051391;28;20056;-37
2022/12/11 08:51:16;;;;;;;7.80;4.80;;;19.10;43.30;;;;;;5051700;28;20048;-36
2022/12/11 08:53:43;;;;;;;6.47;4.03;;;19.20;43.30;;;;;;5051592;28;20045;-37
2022/12/11 08:56:11;;;;;;;7.70;4.50;;;19.20;43.30;;;;;;5051647;28;20048;-36
2022/12/11 08:58:37;;;;;;;7.05;4.28;;;19.20;43.30;;;;;;5051483;28;20053;-36
2022/12/11 09:01:06;;;;;;;7.32;4.70;;;19.20;43.30;;;;;;5057775;28;20041;-36
2022/12/11 09:03:34;;;;;;;6.70;4.68;;;19.20;43.30;;;;;;5051275;28;20079;-36
2022/12/11 09:06:04;;;;;;;7.30;4.20;;;19.30;43.40;;;;;;5050042;28;20076;-36
2022/12/11 09:08:31;;;;;;;9.13;4.88;;;19.30;43.40;;;;;;5050592;28;20040;-36
2022/12/11 09:11:03;;;;;;;6.53;4.40;;;19.30;43.40;;;;;;5050914;28;20486;-36
2022/12/11 09:13:29;;;;;;;6.43;4.25;;;19.40;43.40;;;;;;5050247;28;20052;-37
2022/12/11 09:15:56;;;;;;;6.03;3.95;;;19.40;43.40;;;;;;5052070;28;20047;-37
2022/12/11 09:18:23;;;;;;;6.82;4.07;;;19.40;43.40;;;;;;5051521;28;20049;-37
2022/12/11 09:20:59;;;;;;;6.03;4.30;;;19.40;43.30;;;;;;5054437;28;20045;-37
2022/12/11 09:23:26;;;;;;;6.18;3.78;;;19.50;43.40;;;;;;5053807;28;20524;-37
2022/12/11 09:25:53;;;;;;;8.90;4.03;;;19.50;43.40;;;;;;5054677;28;20041;-37
2022/12/11 09:28:19;;;;;;;6.82;4.13;;;19.60;43.40;;;;;;5055450;28;20068;-37
2022/12/11 09:30:46;;;;;;;6.72;4.10;;;19.60;43.40;;;;;;5055513;28;20051;-37
2022/12/11 09:33:13;;;;;;;9.05;3.80;;;19.60;43.40;;;;;;5055198;28;20048;-37
2022/12/11 09:35:39;;;;;;;10.68;4.00;;;19.70;43.40;;;;;;5054613;28;20060;-37
2022/12/11 09:38:08;;;;;;;10.57;4.20;;;19.70;43.40;;;;;;5054617;28;20045;-37
2022/12/11 09:40:39;;;;;;;7.50;4.15;;;19.70;43.40;;;;;;5054846;28;20102;-37
2022/12/11 09:43:09;;;;;;;6.80;3.95;;;19.80;43.40;;;;;;5054857;28;20051;-36
2022/12/11 09:45:35;;;;;;;6.68;4.35;;;19.80;43.30;;;;;;5055051;28;20425;-37
2022/12/11 09:48:02;;;;;;;8.13;4.05;;;19.80;43.30;;;;;;5054780;28;20056;-37
2022/12/11 09:50:31;;;;;;;7.72;4.22;;;19.90;43.30;;;;;;5054571;28;20531;-37
2022/12/11 09:53:03;;;;;;;8.30;3.88;;;19.90;43.20;;;;;;5054643;28;20397;-38
2022/12/11 09:55:35;;;;;;;7.25;3.88;;;19.90;43.20;;;;;;5054640;28;20049;-38
2022/12/11 09:58:04;;;;;;;11.65;4.20;;;20.00;43.20;;;;;;5054141;28;20051;-39
2022/12/11 10:00:33;;;;;;;10.82;4.15;;;20.00;43.20;;;;;;5054476;28;20524;-37
2022/12/11 10:03:20;;;;;;;9.48;4.03;;;20.00;43.10;;;;;;5054181;28;20056;-37
2022/12/11 10:05:49;;;;;;;7.10;4.03;;;20.00;43.10;;;;;;5054347;28;20055;-37
2022/12/11 10:08:23;;;;;;;7.90;4.75;;;20.00;43.00;;;;;;5054468;28;20071;-38
2022/12/11 10:10:55;;;;;;;9.55;5.03;;;20.00;42.90;;;;;;5054816;28;20516;-38
2022/12/11 10:13:26;;;;;;;8.23;4.10;;;20.10;42.90;;;;;;5053330;28;20053;-38
2022/12/11 10:15:54;;;;;;;7.03;4.07;;;20.10;42.80;;;;;;5053667;28;20045;-38
2022/12/11 10:18:22;;;;;;;10.55;4.65;;;20.10;42.80;;;;;;5053703;28;20045;-37
2022/12/11 10:20:49;;;;;;;6.28;4.07;;;20.20;42.80;;;;;;5052705;28;20060;-37
2022/12/11 10:23:18;;;;;;;5.97;4.00;;;20.20;42.80;;;;;;5053613;28;20037;-37
2022/12/11 10:25:47;;;;;;;7.22;3.80;;;20.20;42.70;;;;;;5051158;28;20045;-38
2022/12/11 10:28:16;;;;;;;7.07;3.97;;;20.20;42.70;;;;;;5053886;28;20055;-38
2022/12/11 10:30:46;;;;;;;6.60;3.78;;;20.20;42.60;;;;;;5051375;28;20072;-37
2022/12/11 10:33:20;;;;;;;7.00;4.35;;;20.30;42.60;;;;;;5053521;28;20045;-38
2022/12/11 10:35:48;;;;;;;7.35;4.13;;;20.30;42.60;;;;;;5050893;28;20049;-37
2022/12/11 10:38:16;;;;;;;7.57;4.10;;;20.30;42.60;;;;;;5052570;28;20049;-38
2022/12/11 10:40:47;;;;;;;6.22;4.00;;;20.30;42.50;;;;;;5053054;28;20045;-38
2022/12/11 10:43:15;;;;;;;5.80;3.58;;;20.30;42.50;;;;;;5052432;28;20550;-37
2022/12/11 10:45:51;;;;;;;7.90;4.07;;;20.30;42.50;;;;;;5053285;28;20045;-37
2022/12/11 10:48:18;;;;;;;6.55;3.90;;;20.40;42.50;;;;;;5053507;28;20405;-37
2022/12/11 10:50:44;;;;;;;8.23;4.18;;;20.30;42.40;;;;;;5050103;28;20041;-38
2022/12/11 10:53:20;;;;;;;6.40;4.03;;;20.40;42.40;;;;;;5053275;28;20052;-38
2022/12/11 10:55:46;;;;;;;5.25;4.00;;;20.40;42.40;;;;;;5053752;28;20061;-38
2022/12/11 10:58:16;;;;;;;6.38;4.07;;;20.40;42.30;;;;;;5053614;28;20045;-37
2022/12/11 11:00:43;;;;;;;6.47;3.88;;;20.50;42.40;;;;;;5053363;28;20045;-38
2022/12/11 11:03:20;;;;;;;7.53;4.30;;;20.50;42.40;;;;;;5052982;28;20053;-37
2022/12/11 11:05:49;;;;;;;6.63;3.97;;;20.50;42.30;;;;;;5053404;28;20071;-38
2022/12/11 11:08:18;;;;;;;5.30;3.70;;;20.50;42.30;;;;;;5052992;28;20490;-38
2022/12/11 11:10:54;;;;;;;4.97;3.53;;;20.50;42.30;;;;;;5053527;28;20120;-37
2022/12/11 11:13:22;;;;;;;5.55;3.70;;;20.50;42.20;;;;;;5053243;28;20476;-37
2022/12/11 11:15:49;;;;;;;6.50;4.05;;;20.50;42.20;;;;;;5053295;28;20101;-37
2022/12/11 11:18:20;;;;;;;6.60;4.43;;;20.50;42.20;;;;;;5053089;28;20048;-36
2022/12/11 11:20:47;;;;;;;6.78;4.60;;;20.60;41.90;;;;;;5052985;28;20489;-38
2022/12/11 11:23:15;;;;;;;9.13;5.25;;;20.60;41.50;;;;;;5053011;28;20060;-35
2022/12/11 11:25:48;;;;;;;7.22;4.63;;;20.60;41.20;;;;;;5053170;28;20052;-35
2022/12/11 11:28:18;;;;;;;9.07;5.47;;;20.60;41.10;;;;;;5053083;28;20045;-36
2022/12/11 11:30:55;;;;;;;9.02;4.90;;;20.60;41.20;;;;;;5052762;28;20049;-35
2022/12/11 11:33:22;;;;;;;9.20;4.75;;;20.60;41.20;;;;;;5052708;28;20059;-35
2022/12/11 11:35:52;;;;;;;6.22;4.60;;;20.60;41.30;;;;;;5052156;28;20055;-35
2022/12/11 11:38:22;;;;;;;9.55;5.50;;;20.60;41.30;;;;;;5053031;28;20061;-36
2022/12/11 11:40:53;;;;;;;6.65;4.30;;;20.70;41.30;;;;;;5052419;28;20052;-35
2022/12/11 11:43:27;;;;;;;6.93;4.93;;;20.70;41.30;;;;;;5052570;28;20386;-35
2022/12/11 11:45:58;;;;;;;6.63;4.22;;;20.70;41.30;;;;;;5050346;28;20144;-35
2022/12/11 11:48:30;;;;;;;5.70;3.90;;;20.70;41.30;;;;;;5050724;28;20535;-35
2022/12/11 11:50:57;;;;;;;6.65;4.18;;;20.70;41.40;;;;;;5052716;28;20041;-35
2022/12/11 11:53:27;;;;;;;7.45;4.15;;;20.70;41.40;;;;;;5052549;28;20132;-35
2022/12/11 11:55:58;;;;;;;5.60;3.97;;;20.70;41.40;;;;;;5052233;28;20500;-34
2022/12/11 11:58:26;;;;;;;6.65;4.10;;;20.80;41.50;;;;;;5051792;28;20052;-35
2022/12/11 12:00:53;;;;;;;6.78;4.13;;;20.70;41.40;;;;;;5052065;28;20095;-35
2022/12/11 12:03:22;;;;;;;6.45;3.80;;;20.80;41.50;;;;;;5051800;28;20055;-35
2022/12/11 12:05:52;;;;;;;6.78;4.40;;;20.80;41.50;;;;;;5051684;28;20037;-35
2022/12/11 12:08:25;;;;;;;5.75;3.95;;;20.80;41.40;;;;;;5051981;28;20044;-35
2022/12/11 12:10:54;;;;;;;5.60;3.88;;;20.80;41.40;;;;;;5050242;28;20045;-35
2022/12/11 12:13:25;;;;;;;6.38;4.28;;;20.80;41.40;;;;;;5051594;28;20412;-35
2022/12/11 12:15:55;;;;;;;5.90;4.40;;;20.90;41.50;;;;;;5051832;28;20098;-35
2022/12/11 12:18:27;;;;;;;7.13;4.15;;;20.90;41.40;;;;;;5051451;28;20049;-35
2022/12/11 12:20:55;;;;;;;6.47;4.20;;;20.90;41.40;;;;;;5051417;28;20067;-35
2022/12/11 12:23:44;;;;;;;6.22;4.07;;;20.90;41.40;;;;;;5051977;28;20053;-35
2022/12/11 12:26:13;;;;;;;4.78;3.70;;;20.90;41.50;;;;;;5052176;28;20055;-36
2022/12/11 12:28:44;;;;;;;6.05;3.92;;;20.90;41.40;;;;;;5052089;28;20195;-35
2022/12/11 12:31:29;;;;;;;7.00;4.15;;;20.90;41.40;;;;;;5051787;28;20049;-35
2022/12/11 12:34:03;;;;;;;5.63;3.70;;;21.00;41.50;;;;;;5051636;28;20044;-35
2022/12/11 12:36:33;;;;;;;6.35;3.95;;;20.90;41.40;;;;;;5051461;28;20052;-35
2022/12/11 12:39:01;;;;;;;5.18;3.53;;;20.90;41.40;;;;;;5051933;28;20096;-35
2022/12/11 12:41:33;;;;;;;7.10;4.97;;;21.00;41.40;;;;;;5051686;28;20486;-35
2022/12/11 12:44:06;;;;;;;6.18;4.25;;;21.00;41.30;;;;;;5051675;28;20055;-35
2022/12/11 12:46:40;;;;;;;7.20;4.28;;;21.00;41.30;;;;;;5051278;28;20131;-35
2022/12/11 12:49:10;;;;;;;6.85;4.30;;;21.00;41.20;;;;;;5038038;28;20063;-35
2022/12/11 12:51:37;;;;;;;6.40;4.40;;;21.00;41.20;;;;;;5051841;28;20053;-35
2022/12/11 12:54:04;;;;;;;5.53;4.00;;;21.00;41.20;;;;;;5050848;28;20056;-35
2022/12/11 12:56:31;;;;;;;6.07;3.90;;;21.00;41.20;;;;;;5051783;28;20059;-35
2022/12/11 12:58:58;;;;;;;6.07;4.47;;;21.00;41.20;;;;;;5051479;28;20045;-35
2022/12/11 13:01:25;;;;;;;6.63;4.35;;;21.00;41.20;;;;;;5051427;28;20136;-35